createdAt,value
2023-07-07T00:02:23.027Z,91.80
2023-07-07T00:04:53.978Z,92.00
2023-07-07T00:07:25.631Z,91.10
2023-07-07T00:09:58.270Z,90.80
2023-07-07T00:12:29.038Z,91.00
2023-07-07T00:15:00.828Z,91.40
2023-07-07T00:17:32.852Z,91.30
2023-07-07T00:20:11.616Z,91.60
2023-07-07T00:22:47.184Z,91.10
2023-07-07T00:25:18.575Z,91.00
2023-07-07T00:27:48.950Z,91.60
2023-07-07T00:30:19.361Z,91.30
2023-07-07T00:32:50.201Z,91.60
2023-07-07T00:35:21.272Z,91.50
2023-07-07T00:37:51.541Z,91.00
2023-07-07T00:40:24.568Z,91.30
2023-07-07T00:42:55.281Z,91.20
2023-07-07T00:45:27.033Z,91.30
2023-07-07T00:48:05.371Z,90.70
2023-07-07T00:50:43.775Z,90.50
2023-07-07T00:53:17.914Z,90.10
2023-07-07T00:55:53.051Z,90.30
2023-07-07T00:58:26.846Z,89.90
2023-07-07T01:01:05.348Z,89.40
2023-07-07T01:04:01.172Z,88.60
2023-07-07T01:06:36.173Z,87.80
2023-07-07T01:09:15.173Z,87.10
2023-07-07T01:11:49.490Z,88.60
2023-07-07T01:14:25.406Z,86.40
2023-07-07T01:17:23.874Z,86.40
2023-07-07T01:19:54.601Z,87.50
2023-07-07T01:22:41.988Z,87.50
2023-07-07T01:25:33.322Z,86.90
2023-07-07T01:28:35.960Z,86.30
2023-07-07T01:31:38.696Z,86.60
2023-07-07T01:34:09.422Z,85.50
2023-07-07T01:36:39.760Z,86.70
2023-07-07T01:39:10.197Z,85.40
2023-07-07T01:42:13.078Z,86.60
2023-07-07T01:44:52.794Z,85.80
2023-07-07T01:47:30.574Z,86.00
2023-07-07T01:50:08.861Z,85.80
2023-07-07T01:52:48.810Z,85.20
2023-07-07T01:55:29.499Z,86.20
2023-07-07T01:58:09.015Z,85.30
2023-07-07T02:00:40.209Z,83.90
2023-07-07T02:03:13.903Z,84.10
2023-07-07T02:05:44.333Z,84.20
2023-07-07T02:08:18.770Z,82.80
2023-07-07T02:10:49.734Z,83.20
2023-07-07T02:13:20.542Z,81.90
2023-07-07T02:15:52.162Z,82.30
2023-07-07T02:18:23.600Z,82.30
2023-07-07T02:21:14.104Z,82.80
2023-07-07T02:27:08.056Z,83.00
2023-07-07T02:27:13.454Z,82.60
2023-07-07T02:29:44.011Z,82.30
2023-07-07T02:32:14.399Z,80.20
2023-07-07T02:38:16.016Z,80.70
2023-07-07T02:40:59.263Z,80.50
2023-07-07T02:43:30.671Z,80.10
2023-07-07T02:46:01.038Z,79.30
2023-07-07T02:48:31.618Z,79.70
2023-07-07T02:51:05.282Z,80.30
2023-07-07T02:53:40.812Z,78.90
2023-07-07T02:56:11.623Z,77.40
2023-07-07T02:58:42.296Z,79.00
2023-07-07T03:01:19.210Z,78.40
2023-07-07T03:03:53.475Z,77.90
2023-07-07T03:06:26.041Z,77.20
2023-07-07T03:08:57.396Z,77.70
2023-07-07T03:11:28.379Z,78.20
2023-07-07T03:13:59.147Z,79.00
2023-07-07T03:16:36.135Z,80.50
2023-07-07T03:19:07.239Z,81.00
2023-07-07T03:21:37.986Z,79.10
2023-07-07T03:24:10.799Z,79.90
2023-07-07T03:26:41.448Z,81.20
2023-07-07T03:29:11.841Z,80.00
2023-07-07T03:31:42.361Z,81.20
2023-07-07T03:34:12.749Z,82.80
2023-07-07T03:36:43.485Z,83.40
2023-07-07T03:39:14.176Z,83.60
2023-07-07T03:41:44.878Z,84.00
2023-07-07T03:44:16.141Z,84.90
2023-07-07T03:46:48.119Z,85.60
2023-07-07T03:49:19.682Z,86.30
2023-07-07T03:51:49.968Z,86.50
2023-07-07T03:54:20.403Z,87.20
2023-07-07T03:56:51.239Z,87.50
2023-07-07T03:59:23.795Z,88.50
2023-07-07T04:01:54.525Z,89.00
2023-07-07T04:04:25.588Z,90.30
2023-07-07T04:07:03.412Z,91.10
2023-07-07T04:09:34.206Z,91.50
2023-07-07T04:12:04.572Z,90.90
2023-07-07T04:14:35.284Z,90.50
2023-07-07T04:17:07.634Z,90.90
2023-07-07T04:19:38.075Z,91.10
2023-07-07T04:22:08.748Z,91.40
2023-07-07T04:24:39.194Z,91.50
2023-07-07T04:27:10.098Z,90.70
2023-07-07T04:29:40.446Z,90.40
2023-07-07T04:32:11.127Z,89.80
2023-07-07T04:34:41.525Z,89.40
2023-07-07T04:37:11.875Z,88.70
2023-07-07T04:39:42.613Z,88.00
2023-07-07T04:42:13.687Z,88.80
2023-07-07T04:44:45.476Z,88.30
2023-07-07T04:47:16.006Z,90.00
2023-07-07T04:49:46.362Z,91.30
2023-07-07T04:52:16.747Z,91.60
2023-07-07T04:54:47.109Z,89.60
2023-07-07T04:57:17.974Z,90.00
2023-07-07T04:59:49.604Z,89.50
2023-07-07T05:02:25.951Z,90.40
2023-07-07T05:04:57.595Z,90.20
2023-07-07T05:07:31.224Z,90.30
2023-07-07T05:10:01.528Z,90.30
2023-07-07T05:12:31.857Z,90.90
2023-07-07T05:15:02.254Z,90.90
2023-07-07T05:17:32.659Z,91.30
2023-07-07T05:20:03.530Z,91.20
2023-07-07T05:22:34.493Z,91.40
2023-07-07T05:25:04.806Z,91.60
2023-07-07T05:27:35.829Z,91.50
2023-07-07T05:30:06.594Z,91.40
2023-07-07T05:32:37.064Z,91.80
2023-07-07T05:35:07.836Z,91.70
2023-07-07T05:37:38.639Z,91.70
2023-07-07T05:40:09.776Z,91.70
2023-07-07T05:42:41.788Z,92.00
2023-07-07T05:45:13.004Z,92.00
2023-07-07T05:47:45.129Z,92.00
2023-07-07T05:50:16.001Z,92.10
2023-07-07T05:52:46.752Z,92.10
2023-07-07T05:55:37.448Z,92.10
2023-07-07T05:58:09.719Z,92.00
2023-07-07T06:00:40.535Z,92.10
2023-07-07T06:03:12.470Z,92.10
2023-07-07T06:05:43.269Z,92.50
2023-07-07T06:08:17.069Z,92.80
2023-07-07T06:10:51.420Z,93.10
2023-07-07T06:13:26.782Z,93.30
2023-07-07T06:15:58.082Z,93.40
2023-07-07T06:18:29.373Z,93.40
2023-07-07T06:21:05.212Z,93.60
2023-07-07T06:23:37.465Z,93.70
2023-07-07T06:26:08.589Z,93.70
2023-07-07T06:28:39.188Z,93.80
2023-07-07T06:31:10.137Z,93.60
2023-07-07T06:33:44.021Z,93.80
2023-07-07T06:36:15.682Z,93.90
2023-07-07T06:38:46.499Z,93.90
2023-07-07T06:41:26.198Z,93.90
2023-07-07T06:43:57.420Z,93.90
2023-07-07T06:46:30.978Z,93.70
2023-07-07T06:49:02.951Z,93.70
2023-07-07T06:51:33.944Z,93.80
2023-07-07T06:54:08.694Z,94.10
2023-07-07T06:56:39.410Z,93.50
2023-07-07T06:59:12.674Z,93.60
2023-07-07T07:01:44.213Z,93.80
2023-07-07T07:04:15.082Z,93.50
2023-07-07T07:06:46.857Z,93.70
2023-07-07T07:09:18.541Z,93.60
2023-07-07T07:11:49.024Z,93.10
2023-07-07T07:14:19.880Z,93.20
2023-07-07T07:16:51.478Z,93.60
2023-07-07T07:19:22.210Z,93.30
2023-07-07T07:21:52.635Z,93.50
2023-07-07T07:24:25.874Z,93.50
2023-07-07T07:26:56.198Z,93.70
2023-07-07T07:29:27.016Z,93.90
2023-07-07T07:31:57.428Z,93.90
2023-07-07T07:34:32.593Z,93.90
2023-07-07T07:37:05.650Z,94.10
2023-07-07T07:39:37.706Z,94.30
2023-07-07T07:42:09.245Z,93.90
2023-07-07T07:44:40.380Z,94.20
2023-07-07T07:47:12.578Z,94.40
2023-07-07T07:49:43.562Z,94.70
2023-07-07T07:52:14.339Z,94.60
2023-07-07T07:54:45.774Z,94.60
2023-07-07T07:57:19.070Z,94.70
2023-07-07T07:59:49.476Z,94.70
2023-07-07T08:02:20.055Z,95.10
2023-07-07T08:04:50.461Z,95.00
2023-07-07T08:07:20.966Z,95.20
2023-07-07T08:09:51.335Z,95.20
2023-07-07T08:12:21.792Z,95.40
2023-07-07T08:14:53.833Z,95.50
2023-07-07T08:17:26.972Z,95.60
2023-07-07T08:19:59.382Z,95.10
2023-07-07T08:22:30.984Z,95.70
2023-07-07T08:25:01.994Z,95.90
2023-07-07T08:30:05.629Z,95.40
2023-07-07T08:32:36.372Z,96.00
2023-07-07T08:35:07.579Z,96.30
2023-07-07T08:37:38.986Z,96.40
2023-07-07T08:40:13.433Z,96.10
2023-07-07T08:42:45.087Z,96.20
2023-07-07T08:45:19.033Z,96.30
2023-07-07T08:48:35.491Z,96.30
2023-07-07T08:51:11.120Z,96.50
2023-07-07T08:57:04.141Z,96.30
2023-07-07T08:59:52.806Z,96.50
2023-07-07T09:02:54.918Z,96.80
2023-07-07T09:05:49.582Z,96.80
2023-07-07T09:08:35.352Z,96.80
2023-07-07T09:11:25.219Z,96.90
2023-07-07T09:14:01.763Z,96.40
2023-07-07T09:16:38.361Z,95.90
2023-07-07T09:19:15.293Z,95.90
2023-07-07T09:22:00.145Z,95.50
2023-07-07T09:24:34.459Z,95.20
2023-07-07T09:27:14.767Z,94.90
2023-07-07T09:29:45.905Z,94.50
2023-07-07T09:32:22.710Z,94.10
2023-07-07T09:34:53.495Z,93.70
2023-07-07T09:37:38.952Z,93.20
2023-07-07T09:40:21.170Z,94.20
2023-07-07T09:42:54.340Z,93.50
2023-07-07T09:46:00.214Z,93.70
2023-07-07T09:49:02.431Z,93.60
2023-07-07T09:51:50.229Z,93.30
2023-07-07T09:54:22.432Z,93.50
2023-07-07T09:57:00.293Z,93.50
2023-07-07T09:59:39.721Z,93.50
2023-07-07T10:02:19.744Z,93.40
2023-07-07T10:04:58.514Z,93.60
2023-07-07T10:07:34.518Z,93.50
2023-07-07T10:10:10.163Z,93.20
2023-07-07T10:12:41.183Z,93.30
2023-07-07T10:15:45.826Z,93.50
2023-07-07T10:18:41.359Z,93.40
2023-07-07T10:21:22.356Z,93.50
2023-07-07T10:23:54.484Z,93.70
2023-07-07T10:26:25.997Z,93.40
2023-07-07T10:29:00.848Z,93.50
2023-07-07T10:31:31.925Z,93.20
2023-07-07T10:34:17.746Z,93.10
2023-07-07T10:36:49.734Z,93.20
2023-07-07T10:39:20.441Z,93.10
2023-07-07T10:41:51.776Z,93.20
2023-07-07T10:44:26.305Z,93.00
2023-07-07T10:46:56.893Z,92.80
2023-07-07T10:49:29.839Z,92.70
2023-07-07T10:53:21.843Z,92.50
2023-07-07T10:55:12.928Z,92.50
2023-07-07T10:58:20.452Z,92.30
2023-07-07T11:01:00.086Z,92.20
2023-07-07T11:03:46.523Z,92.10
2023-07-07T11:06:27.797Z,91.40
2023-07-07T11:09:01.183Z,92.20
2023-07-07T11:12:15.807Z,92.20
2023-07-07T11:15:07.583Z,92.10
2023-07-07T11:17:54.680Z,92.20
2023-07-07T11:20:58.710Z,92.40
2023-07-07T11:24:00.752Z,92.50
2023-07-07T11:27:11.045Z,92.40
2023-07-07T11:30:19.631Z,92.80
2023-07-07T11:33:17.342Z,92.50
2023-07-07T11:36:28.727Z,92.70
2023-07-07T11:39:39.919Z,92.50
2023-07-07T11:42:19.742Z,92.50
2023-07-07T11:45:14.701Z,92.30
2023-07-07T11:48:03.253Z,92.10
2023-07-07T11:51:03.740Z,92.00
2023-07-07T11:54:06.651Z,91.90
2023-07-07T11:57:01.920Z,92.40
2023-07-07T11:59:42.912Z,92.40
2023-07-07T12:02:40.400Z,92.10
2023-07-07T12:05:16.596Z,92.20
2023-07-07T12:07:54.708Z,92.30
2023-07-07T12:10:32.951Z,92.00
2023-07-07T12:13:22.056Z,91.90
2023-07-07T12:15:58.277Z,91.60
2023-07-07T12:18:36.622Z,92.00
2023-07-07T12:21:19.482Z,92.00
2023-07-07T12:24:02.910Z,92.30
2023-07-07T12:26:48.058Z,92.10
2023-07-07T12:29:21.528Z,92.30
2023-07-07T12:31:53.616Z,92.40
2023-07-07T12:35:05.564Z,92.70
2023-07-07T12:37:39.146Z,92.70
2023-07-07T12:40:12.480Z,92.80
2023-07-07T12:42:45.771Z,92.90
2023-07-07T12:45:42.023Z,93.00
2023-07-07T12:48:24.648Z,93.30
2023-07-07T12:51:00.347Z,93.50
2023-07-07T12:53:37.050Z,93.30
2023-07-07T12:56:10.844Z,93.40
2023-07-07T12:58:42.786Z,93.30
2023-07-07T13:01:20.341Z,93.40
2023-07-07T13:04:14.723Z,93.90
2023-07-07T13:07:00.411Z,94.00
2023-07-07T13:09:45.334Z,94.30
2023-07-07T13:12:41.484Z,94.60
2023-07-07T13:15:21.815Z,94.70
2023-07-07T13:17:55.471Z,95.00
2023-07-07T13:20:28.618Z,95.20
2023-07-07T13:23:20.633Z,95.40
2023-07-07T13:25:51.878Z,95.20
2023-07-07T13:28:27.849Z,95.30
2023-07-07T13:31:01.858Z,95.30
2023-07-07T13:33:33.132Z,95.20
2023-07-07T13:36:05.033Z,95.30
2023-07-07T13:38:46.753Z,95.30
2023-07-07T13:41:19.490Z,95.40
2023-07-07T13:43:58.206Z,95.30
2023-07-07T13:46:37.428Z,95.70
2023-07-07T13:49:15.654Z,95.80
2023-07-07T13:51:55.691Z,95.70
2023-07-07T13:54:30.965Z,95.80
2023-07-07T13:57:08.563Z,95.60
2023-07-07T13:59:39.330Z,95.70
2023-07-07T14:02:21.304Z,95.70
2023-07-07T14:05:02.014Z,95.60
2023-07-07T14:07:32.570Z,95.60
2023-07-07T14:10:02.970Z,95.60
2023-07-07T14:12:33.603Z,95.70
2023-07-07T14:15:05.229Z,95.80
2023-07-07T14:17:54.397Z,95.50
2023-07-07T14:20:29.573Z,95.70
2023-07-07T14:23:01.936Z,95.90
2023-07-07T14:25:33.821Z,96.20
2023-07-07T14:28:04.935Z,96.40
2023-07-07T14:30:37.848Z,96.50
2023-07-07T14:33:08.900Z,96.70
2023-07-07T14:35:44.128Z,96.90
2023-07-07T14:38:34.223Z,97.10
2023-07-07T14:41:26.441Z,97.30
2023-07-07T14:43:57.874Z,97.30
2023-07-07T14:46:34.773Z,97.30
2023-07-07T14:49:19.809Z,97.20
2023-07-07T14:51:55.693Z,97.40
2023-07-07T14:54:27.583Z,97.40
2023-07-07T14:57:14.683Z,97.20
2023-07-07T14:59:44.988Z,97.50
2023-07-07T15:02:18.343Z,97.00
2023-07-07T15:04:48.620Z,97.00
2023-07-07T15:07:34.599Z,96.90
2023-07-07T15:10:04.970Z,97.10
2023-07-07T15:12:35.555Z,96.50
2023-07-07T15:15:07.046Z,96.30
2023-07-07T15:17:37.448Z,96.00
2023-07-07T15:20:18.104Z,95.50
2023-07-07T15:22:51.759Z,95.30
2023-07-07T15:25:22.826Z,95.10
2023-07-07T15:27:53.101Z,95.40
2023-07-07T15:30:23.433Z,95.60
2023-07-07T15:32:53.878Z,95.30
2023-07-07T15:35:24.753Z,95.30
2023-07-07T15:37:55.161Z,95.00
2023-07-07T15:40:26.033Z,95.10
2023-07-07T15:42:56.939Z,95.30
2023-07-07T15:45:27.777Z,95.30
2023-07-07T15:47:59.408Z,95.30
2023-07-07T15:50:29.990Z,95.10
2023-07-07T15:53:00.259Z,95.10
2023-07-07T15:55:30.629Z,95.10
2023-07-07T15:58:00.959Z,95.40
2023-07-07T16:00:37.746Z,95.20
2023-07-07T16:03:08.221Z,95.10
2023-07-07T16:05:39.129Z,95.00
2023-07-07T16:08:15.843Z,94.80
2023-07-07T16:10:47.437Z,94.40
2023-07-07T16:13:19.298Z,94.50
2023-07-07T16:15:49.718Z,94.40
2023-07-07T16:18:20.046Z,94.20
2023-07-07T16:20:51.663Z,94.00
2023-07-07T16:23:21.996Z,94.20
2023-07-07T16:25:52.631Z,94.30
2023-07-07T16:28:25.128Z,94.30
2023-07-07T16:30:55.983Z,94.30
2023-07-07T16:33:26.862Z,94.10
2023-07-07T16:35:57.458Z,94.10
2023-07-07T16:38:30.527Z,94.10
2023-07-07T16:41:01.425Z,94.10
2023-07-07T16:43:32.298Z,94.20
2023-07-07T16:46:03.311Z,94.30
2023-07-07T16:48:45.766Z,94.20
2023-07-07T16:51:27.204Z,94.50
2023-07-07T16:53:58.394Z,94.30
2023-07-07T16:56:37.714Z,94.10
2023-07-07T16:59:16.662Z,94.00
2023-07-07T17:01:49.328Z,94.10
2023-07-07T17:04:20.341Z,94.30
2023-07-07T17:06:50.870Z,94.30
2023-07-07T17:09:24.482Z,94.40
2023-07-07T17:11:55.268Z,94.40
2023-07-07T17:14:25.968Z,94.50
2023-07-07T17:16:56.594Z,94.20
2023-07-07T17:19:27.385Z,94.30
2023-07-07T17:21:57.779Z,94.40
2023-07-07T17:24:28.105Z,94.40
2023-07-07T17:26:59.098Z,94.10
2023-07-07T17:29:32.115Z,94.20
2023-07-07T17:32:02.723Z,94.00
2023-07-07T17:34:33.560Z,94.00
2023-07-07T17:37:05.771Z,93.80
2023-07-07T17:39:36.119Z,93.60
2023-07-07T17:42:06.790Z,93.70
2023-07-07T17:44:37.630Z,93.40
2023-07-07T17:47:12.003Z,93.00
2023-07-07T17:49:44.241Z,93.20
2023-07-07T17:52:14.560Z,92.70
2023-07-07T17:54:45.188Z,92.40
2023-07-07T17:57:15.655Z,92.00
2023-07-07T17:59:46.330Z,91.80
2023-07-07T18:02:17.063Z,91.20
2023-07-07T18:04:47.359Z,91.50
2023-07-07T18:07:17.680Z,91.30
2023-07-07T18:09:49.608Z,91.20
2023-07-07T18:12:22.274Z,90.80
2023-07-07T18:14:53.815Z,90.70
2023-07-07T18:17:41.921Z,91.40
2023-07-07T18:20:42.564Z,90.70
2023-07-07T18:23:28.550Z,90.00
2023-07-07T18:26:06.255Z,90.20
2023-07-07T18:28:37.152Z,89.70
2023-07-07T18:31:09.073Z,90.10
2023-07-07T18:33:40.514Z,88.70
2023-07-07T18:38:48.297Z,88.10
2023-07-07T18:41:21.512Z,87.70
2023-07-07T18:43:53.762Z,88.00
2023-07-07T18:46:29.275Z,87.70
2023-07-07T18:49:00.086Z,87.40
2023-07-07T18:51:31.064Z,87.00
2023-07-07T18:54:01.528Z,87.40
2023-07-07T18:56:36.768Z,87.10
2023-07-07T18:59:19.386Z,87.20
2023-07-07T19:01:50.222Z,87.10
2023-07-07T19:04:20.721Z,86.70
2023-07-07T19:06:51.003Z,86.30
2023-07-07T19:09:25.123Z,86.20
2023-07-07T19:12:00.978Z,86.60
2023-07-07T19:14:31.339Z,86.50
2023-07-07T19:17:02.087Z,86.60
2023-07-07T19:19:33.280Z,86.70
2023-07-07T19:22:03.593Z,87.20
2023-07-07T19:24:34.059Z,87.00
2023-07-07T19:27:04.472Z,86.90
2023-07-07T19:29:36.825Z,86.70
2023-07-07T19:32:20.711Z,86.40
2023-07-07T19:34:51.629Z,87.00
2023-07-07T19:37:22.573Z,86.90
2023-07-07T19:39:52.970Z,87.10
2023-07-07T19:42:26.033Z,87.40
2023-07-07T19:44:57.975Z,87.60
2023-07-07T19:47:28.765Z,88.30
2023-07-07T19:49:59.188Z,87.60
2023-07-07T19:52:30.979Z,88.00
2023-07-07T19:55:01.735Z,87.70
2023-07-07T19:57:32.461Z,88.20
2023-07-07T20:00:02.940Z,87.40
2023-07-07T20:02:33.738Z,87.50
2023-07-07T20:05:05.336Z,87.00
2023-07-07T20:07:35.699Z,86.80
2023-07-07T20:10:26.234Z,87.20
2023-07-07T20:12:56.485Z,87.40
2023-07-07T20:15:26.928Z,87.30
2023-07-07T20:17:59.998Z,87.30
2023-07-07T20:20:30.562Z,87.40
2023-07-07T20:23:01.675Z,87.90
2023-07-07T20:25:33.094Z,87.90
2023-07-07T20:28:03.887Z,88.40
2023-07-07T20:30:34.526Z,88.60
2023-07-07T20:33:05.150Z,89.10
2023-07-07T20:35:35.758Z,89.70
2023-07-07T20:38:07.988Z,89.70
2023-07-07T20:40:40.562Z,90.10
2023-07-07T20:43:12.312Z,90.10
2023-07-07T20:45:43.230Z,90.30
2023-07-07T20:48:17.982Z,90.20
2023-07-07T20:50:58.344Z,90.40
2023-07-07T20:54:08.665Z,90.60
2023-07-07T20:56:40.771Z,90.70
2023-07-07T21:01:49.271Z,90.90
2023-07-07T21:04:20.082Z,90.70
2023-07-07T21:06:50.790Z,90.90
2023-07-07T21:09:21.701Z,90.90
2023-07-07T21:11:53.167Z,91.20
2023-07-07T21:14:24.650Z,91.10
2023-07-07T21:16:56.784Z,91.40
2023-07-07T21:19:28.904Z,91.60
2023-07-07T21:22:00.352Z,91.70
2023-07-07T21:24:31.141Z,91.80
2023-07-07T21:27:01.669Z,91.80
2023-07-07T21:29:32.536Z,91.90
2023-07-07T21:32:03.217Z,92.30
2023-07-07T21:35:57.689Z,92.30
2023-07-07T21:37:51.442Z,92.20
2023-07-07T21:40:25.874Z,92.20
2023-07-07T21:42:56.658Z,92.30
2023-07-07T21:45:28.028Z,92.60
2023-07-07T21:48:04.847Z,92.70
2023-07-07T21:50:35.663Z,92.70
2023-07-07T21:53:06.012Z,92.80
2023-07-07T21:55:36.953Z,92.70
2023-07-07T21:58:07.364Z,92.60
2023-07-07T22:00:38.757Z,92.80
2023-07-07T22:03:22.303Z,92.70
2023-07-07T22:05:55.508Z,92.70
2023-07-07T22:08:26.601Z,92.70
2023-07-07T22:10:58.570Z,92.90
2023-07-07T22:13:29.045Z,92.80
2023-07-07T22:15:59.482Z,92.70
2023-07-07T22:18:32.204Z,92.70
2023-07-07T22:21:06.946Z,92.90
2023-07-07T22:23:37.722Z,92.70
2023-07-07T22:26:18.357Z,93.10
2023-07-07T22:28:49.627Z,92.60
2023-07-07T22:31:22.103Z,92.60
2023-07-07T22:33:52.935Z,92.80
2023-07-07T22:36:28.796Z,93.10
2023-07-07T22:39:00.060Z,92.70
2023-07-07T22:41:33.423Z,92.50
2023-07-07T22:44:04.411Z,92.40
2023-07-07T22:46:43.985Z,92.10
2023-07-07T22:49:16.620Z,92.40
2023-07-07T22:51:58.131Z,92.10
2023-07-07T22:56:10.071Z,92.50
2023-07-07T22:58:00.562Z,91.80
2023-07-07T23:00:32.960Z,92.00
2023-07-07T23:03:03.359Z,91.60
2023-07-07T23:05:33.990Z,91.60
2023-07-07T23:08:04.772Z,91.70
2023-07-07T23:10:35.033Z,91.60
2023-07-07T23:13:05.386Z,91.60
2023-07-07T23:15:35.720Z,91.50
2023-07-07T23:18:06.292Z,91.10
2023-07-07T23:20:40.779Z,91.40
2023-07-07T23:23:13.755Z,91.30
2023-07-07T23:25:44.475Z,91.70
2023-07-07T23:28:14.849Z,91.10
2023-07-07T23:31:11.148Z,91.00
2023-07-07T23:33:42.113Z,90.70
2023-07-07T23:36:20.029Z,90.40
2023-07-07T23:38:51.623Z,89.90
2023-07-07T23:41:25.616Z,90.00
2023-07-07T23:43:57.318Z,90.30
2023-07-07T23:46:36.997Z,90.20
2023-07-07T23:49:19.136Z,89.80
2023-07-07T23:51:49.524Z,90.20
2023-07-07T23:55:00.507Z,90.20
2023-07-07T23:57:32.624Z,88.90
